Time;durP1;ratioP1;P1;durP2;ratioP2;P2;SDS_P1;SDS_P2;PMS_P1;PMS_P2;Temp;Humidity;BMP_temperature;BMP_pressure;BME280_temperature;BME280_humidity;BME280_pressure;Samples;Min_cycle;Max_cycle;Signal;HPM_P1;HPM_P2
2022/06/22 00:02:26;;;;;;;6.93;2.83;;;;;;;28.60;39.14;100542.94;5086104;27;2037025;-62
2022/06/22 00:04:56;;;;;;;5.97;2.70;;;;;;;28.57;38.81;100545.44;5147342;27;20774;-62
2022/06/22 00:07:26;;;;;;;4.77;2.90;;;;;;;28.54;38.97;100543.31;5147528;27;20413;-62
2022/06/22 00:09:55;;;;;;;5.30;2.80;;;;;;;28.48;39.33;100555.38;5144313;27;20440;-62
2022/06/22 00:12:26;;;;;;;3.95;2.53;;;;;;;28.45;39.22;100556.78;5142883;27;20410;-62
2022/06/22 00:14:56;;;;;;;4.45;2.85;;;;;;;28.42;39.47;100557.38;5141740;27;20424;-61
2022/06/22 00:17:27;;;;;;;2.90;2.58;;;;;;;28.41;39.33;100561.19;5146120;27;20421;-62
2022/06/22 00:20:00;;;;;;;5.13;2.80;;;;;;;28.36;39.40;100562.09;5141501;27;20408;-62
2022/06/22 00:24:47;;;;;;;5.93;2.95;;;;;;;28.30;39.96;100551.53;5104679;27;20409;-64
2022/06/22 00:27:21;;;;;;;3.92;2.90;;;;;;;28.24;39.95;100553.50;5092070;28;20427;-63
2022/06/22 00:30:08;;;;;;;5.35;2.90;;;;;;;28.22;39.80;100558.44;5100759;28;21013;-64
2022/06/22 00:32:35;;;;;;;5.30;3.25;;;;;;;28.20;40.04;100549.75;5099852;28;20921;-65
2022/06/22 00:35:36;;;;;;;5.05;3.00;;;;;;;28.13;39.91;100550.09;5093786;28;20418;-63
2022/06/22 00:38:05;;;;;;;3.75;2.90;;;;;;;28.10;40.24;100556.13;5096048;28;20414;-63
2022/06/22 00:40:37;;;;;;;5.05;2.95;;;;;;;28.07;40.40;100553.19;5102971;28;20409;-63
2022/06/22 00:43:05;;;;;;;6.57;3.10;;;;;;;27.99;40.54;100547.28;5105733;28;20428;-65
2022/06/22 00:45:35;;;;;;;6.22;3.20;;;;;;;27.99;40.37;100535.56;5104957;28;20413;-63
2022/06/22 00:48:13;;;;;;;3.88;2.80;;;;;;;27.99;40.42;100538.28;5087210;28;20521;-64
2022/06/22 00:50:44;;;;;;;3.72;2.75;;;;;;;28.01;40.50;100534.16;5098323;28;20503;-64
2022/06/22 00:53:18;;;;;;;4.35;2.60;;;;;;;28.03;40.38;100528.44;5103996;28;20488;-64
2022/06/22 00:56:55;;;;;;;5.20;2.90;;;;;;;28.01;40.63;100534.16;5076586;28;20412;-63
2022/06/22 00:59:28;;;;;;;5.47;3.28;;;;;;;27.97;40.32;100527.69;5054604;28;20410;-63
2022/06/22 01:01:59;;;;;;;5.93;3.10;;;;;;;27.93;40.49;100518.47;5070889;28;20414;-63
2022/06/22 01:04:31;;;;;;;3.60;2.72;;;;;;;27.94;40.66;100524.72;5070307;28;20422;-63
2022/06/22 01:07:05;;;;;;;4.03;2.80;;;;;;;27.93;40.38;100512.19;5059006;28;20452;-62
2022/06/22 01:09:39;;;;;;;5.40;3.00;;;;;;;27.87;40.46;100505.97;5049000;28;20543;-62
2022/06/22 01:12:29;;;;;;;6.63;2.70;;;;;;;27.85;40.21;100513.63;5056776;28;20503;-63
2022/06/22 01:15:13;;;;;;;3.40;2.97;;;;;;;27.84;40.30;100529.16;5076037;28;20434;-62
2022/06/22 01:17:49;;;;;;;4.75;2.88;;;;;;;27.82;40.24;100536.00;5065086;28;20422;-63
2022/06/22 01:20:27;;;;;;;6.05;2.88;;;;;;;27.82;40.34;100544.16;5051890;28;20422;-64
2022/06/22 01:23:33;;;;;;;5.13;2.80;;;;;;;27.81;40.33;100535.19;5050304;28;21002;-64
2022/06/22 01:26:24;;;;;;;5.80;2.90;;;;;;;27.80;40.07;100530.03;5066126;28;20422;-62
2022/06/22 01:28:59;;;;;;;4.45;3.00;;;;;;;27.81;40.15;100534.38;5067237;28;20427;-62
2022/06/22 01:31:28;;;;;;;7.22;3.40;;;;;;;27.77;40.30;100533.34;5074767;28;20501;-64
2022/06/22 01:33:56;;;;;;;5.10;2.90;;;;;;;27.75;39.81;100525.47;5071312;28;20435;-62
2022/06/22 01:36:26;;;;;;;6.10;3.20;;;;;;;27.70;40.27;100511.09;5056418;28;20440;-62
2022/06/22 01:38:53;;;;;;;5.18;2.80;;;;;;;27.68;39.79;100527.72;5068395;28;20438;-62
2022/06/22 01:41:31;;;;;;;4.53;3.03;;;;;;;27.67;39.95;100515.19;5076850;28;20427;-62
2022/06/22 01:44:07;;;;;;;3.00;2.60;;;;;;;27.63;39.99;100508.72;5065113;28;20934;-61
2022/06/22 01:46:42;;;;;;;4.28;3.03;;;;;;;27.64;39.64;100513.88;5068152;28;20412;-62
2022/06/22 01:49:14;;;;;;;4.93;2.60;;;;;;;27.60;39.95;100512.84;5079629;28;20438;-61
2022/06/22 01:51:45;;;;;;;5.13;2.63;;;;;;;27.59;39.99;100504.97;5075901;28;20421;-64
2022/06/22 01:54:23;;;;;;;3.70;2.80;;;;;;;27.52;39.78;100510.75;5074895;28;20436;-64
2022/06/22 01:56:57;;;;;;;6.18;2.88;;;;;;;27.51;39.99;100505.56;5067774;28;20432;-62
2022/06/22 01:59:32;;;;;;;4.95;2.90;;;;;;;27.46;40.11;100511.91;5079754;28;20506;-62
2022/06/22 02:02:03;;;;;;;5.22;3.17;;;;;;;27.44;40.38;100519.53;5074008;28;20504;-63
2022/06/22 02:04:39;;;;;;;5.25;2.85;;;;;;;27.42;40.13;100519.00;5062242;28;20822;-64
2022/06/22 02:10:20;;;;;;;4.50;2.90;;;;;;;27.43;40.21;100502.38;5054334;28;20824;-64
2022/06/22 02:12:57;;;;;;;4.57;2.70;;;;;;;27.43;40.37;100507.84;5062136;28;20470;-64
2022/06/22 02:15:30;;;;;;;6.13;2.90;;;;;;;27.43;40.54;100512.47;5062539;28;20926;-64
2022/06/22 02:17:58;;;;;;;6.43;3.00;;;;;;;27.32;40.60;100506.31;5051034;28;20930;-64
2022/06/22 02:20:34;;;;;;;4.38;2.88;;;;;;;27.24;40.45;100507.72;5033964;28;20425;-64
2022/06/22 02:23:10;;;;;;;3.90;2.70;;;;;;;27.22;40.79;100514.53;5061243;28;20503;-64
2022/06/22 02:25:43;;;;;;;5.43;3.00;;;;;;;27.19;40.72;100518.66;5039934;28;20425;-64
2022/06/22 02:28:10;;;;;;;4.38;2.58;;;;;;;27.11;40.52;100527.44;5050149;28;20819;-64
2022/06/22 02:30:39;;;;;;;5.57;2.60;;;;;;;27.12;40.98;100533.69;5051734;28;20419;-64
2022/06/22 02:33:08;;;;;;;7.63;2.72;;;;;;;27.08;40.51;100522.56;5056918;28;20412;-64
2022/06/22 02:35:37;;;;;;;4.75;2.80;;;;;;;27.08;40.45;100526.09;5049114;28;20520;-64
2022/06/22 02:38:09;;;;;;;4.25;2.65;;;;;;;27.05;40.24;100532.09;5052361;28;20421;-64
2022/06/22 02:46:10;;;;;;;5.65;2.47;;;;;;;27.03;39.94;100519.91;5062181;28;20418;-64
2022/06/22 02:48:37;;;;;;;4.15;2.40;;;;;;;27.03;39.93;100515.25;5046329;28;20796;-64
2022/06/22 02:51:14;;;;;;;6.47;2.63;;;;;;;27.03;40.06;100530.78;5050320;28;20452;-64
2022/06/22 02:53:43;;;;;;;5.27;2.70;;;;;;;27.10;39.88;100533.97;5040050;28;20426;-64
2022/06/22 02:56:14;;;;;;;6.30;2.75;;;;;;;27.17;39.71;100541.78;5061504;28;20431;-64
2022/06/22 02:58:42;;;;;;;6.07;2.67;;;;;;;27.21;39.47;100543.69;5044802;28;20419;-64
2022/06/22 03:01:14;;;;;;;4.80;2.70;;;;;;;27.21;39.70;100540.97;5060369;28;20526;-64
2022/06/22 03:03:46;;;;;;;7.18;4.30;;;;;;;27.22;39.80;100555.38;5039952;28;20436;-63
2022/06/22 03:06:15;;;;;;;5.10;3.22;;;;;;;27.24;39.83;100555.88;5067560;28;20494;-64
2022/06/22 03:08:43;;;;;;;4.38;3.00;;;;;;;27.20;39.72;100561.09;5051385;28;20547;-64
2022/06/22 03:11:12;;;;;;;4.30;2.63;;;;;;;27.18;40.32;100560.56;5041425;28;20422;-63
2022/06/22 03:13:42;;;;;;;5.45;3.10;;;;;;;27.24;40.49;100567.59;5045639;28;20429;-64
2022/06/22 03:16:26;;;;;;;4.82;2.88;;;;;;;27.21;40.74;100565.44;5047539;28;20510;-63
2022/06/22 03:18:55;;;;;;;4.63;3.00;;;;;;;27.15;41.00;100572.00;5053498;28;20416;-64
2022/06/22 03:21:22;;;;;;;5.40;2.85;;;;;;;27.18;40.72;100568.72;5049719;28;20422;-63
2022/06/22 03:23:56;;;;;;;4.32;2.90;;;;;;;27.23;41.15;100574.13;5043891;28;20424;-64
2022/06/22 03:26:26;;;;;;;5.20;3.00;;;;;;;27.23;41.03;100571.41;5040674;28;20990;-63
2022/06/22 03:29:01;;;;;;;6.77;3.63;;;;;;;27.31;40.57;100570.00;5041718;28;20410;-63
2022/06/22 03:31:39;;;;;;;4.80;2.80;;;;;;;27.34;40.71;100564.00;5059408;28;20424;-64
2022/06/22 03:34:11;;;;;;;6.78;3.00;;;;;;;27.37;40.45;100570.78;5045237;28;20414;-63
2022/06/22 03:36:46;;;;;;;6.13;3.42;;;;;;;27.39;40.22;100579.50;5050191;28;20486;-64
2022/06/22 03:39:18;;;;;;;7.30;3.40;;;;;;;27.40;40.10;100581.91;5033308;28;20425;-64
2022/06/22 03:41:50;;;;;;;5.53;3.20;;;;;;;27.44;40.27;100579.41;5044612;28;20415;-63
2022/06/22 03:44:23;;;;;;;6.45;4.03;;;;;;;27.50;40.23;100572.03;5051477;28;20420;-61
2022/06/22 03:46:55;;;;;;;7.03;3.10;;;;;;;27.42;39.83;100566.13;5049321;28;20486;-62
2022/06/22 03:49:30;;;;;;;5.20;3.27;;;;;;;27.49;40.11;100570.41;5048353;28;20929;-63
2022/06/22 03:52:02;;;;;;;6.00;3.50;;;;;;;27.56;39.84;100576.31;5050084;28;20930;-63
2022/06/22 03:54:33;;;;;;;5.57;3.42;;;;;;;27.61;39.51;100571.63;5047422;28;20413;-62
2022/06/22 03:57:07;;;;;;;5.35;3.80;;;;;;;27.68;39.03;100573.19;5048431;28;20425;-62
2022/06/22 03:59:39;;;;;;;7.47;3.38;;;;;;;27.77;39.02;100583.19;5048263;28;20478;-62
2022/06/22 04:02:07;;;;;;;5.00;3.40;;;;;;;27.83;38.90;100587.47;5046912;28;20424;-63
2022/06/22 04:04:34;;;;;;;4.93;3.65;;;;;;;27.83;38.75;100592.09;5046582;28;20764;-62
2022/06/22 04:07:01;;;;;;;4.93;3.67;;;;;;;27.90;38.83;100578.16;5048257;28;20926;-63
2022/06/22 04:09:31;;;;;;;8.65;3.55;;;;;;;28.03;38.62;100591.09;5048422;28;20504;-62
2022/06/22 04:12:02;;;;;;;8.57;4.10;;;;;;;28.14;38.68;100595.31;5049953;28;20420;-62
2022/06/22 04:14:37;;;;;;;5.23;3.80;;;;;;;28.28;38.16;100597.34;5048703;28;20906;-62
2022/06/22 04:17:09;;;;;;;8.00;3.72;;;;;;;28.35;37.88;100579.53;5048980;28;20439;-63
2022/06/22 04:19:41;;;;;;;8.27;3.53;;;;;;;28.48;37.89;100585.38;5047230;28;20978;-63
2022/06/22 04:22:14;;;;;;;13.07;3.90;;;;;;;28.62;37.18;100589.03;5051549;28;20423;-63
2022/06/22 04:24:47;;;;;;;22.85;4.30;;;;;;;28.72;37.23;100583.44;5049077;28;20420;-64
2022/06/22 04:27:19;;;;;;;6.88;3.28;;;;;;;28.88;36.71;100594.09;5052585;28;20424;-64
2022/06/22 04:29:52;;;;;;;7.38;3.75;;;;;;;28.97;36.64;100592.31;5048185;28;20410;-64
2022/06/22 04:32:24;;;;;;;6.05;3.10;;;;;;;29.10;36.29;100591.56;5045006;28;20435;-65
2022/06/22 04:34:54;;;;;;;5.05;2.95;;;;;;;29.25;35.94;100581.53;5034926;28;20924;-65
2022/06/22 04:37:29;;;;;;;6.90;2.90;;;;;;;29.38;35.84;100579.97;5033461;28;20435;-64
2022/06/22 04:40:12;;;;;;;7.63;3.20;;;;;;;29.50;35.64;100585.75;5033215;28;20488;-65
2022/06/22 04:42:40;;;;;;;6.28;3.30;;;;;;;29.67;35.41;100598.81;5030645;28;20422;-64
2022/06/22 04:45:12;;;;;;;6.22;2.90;;;;;;;29.67;34.83;100602.34;5032395;28;20499;-65
2022/06/22 04:47:40;;;;;;;4.35;2.90;;;;;;;29.76;34.82;100607.16;5030565;28;20423;-65
2022/06/22 04:50:12;;;;;;;7.53;2.90;;;;;;;29.77;34.35;100592.41;5032514;28;20416;-64
2022/06/22 04:52:43;;;;;;;5.25;3.20;;;;;;;29.83;33.89;100582.97;5029158;28;20505;-65
2022/06/22 04:55:16;;;;;;;7.50;3.33;;;;;;;29.93;33.68;100591.78;5036558;28;20772;-65
2022/06/22 04:57:45;;;;;;;7.15;3.50;;;;;;;30.04;33.30;100575.19;5031721;28;20507;-66
2022/06/22 05:00:20;;;;;;;7.88;3.15;;;;;;;30.20;33.17;100581.16;5032364;28;20433;-63
2022/06/22 05:02:53;;;;;;;5.43;3.05;;;;;;;30.21;32.92;100591.78;5036656;28;20479;-63
2022/06/22 05:05:23;;;;;;;5.13;2.90;;;;;;;30.39;31.98;100592.78;5033157;28;20434;-63
2022/06/22 05:07:53;;;;;;;6.60;3.05;;;;;;;30.43;31.89;100593.00;5033835;28;20416;-64
2022/06/22 05:10:40;;;;;;;4.78;2.40;;;;;;;30.59;31.19;100597.00;5035073;28;20815;-61
2022/06/22 05:13:14;;;;;;;5.07;2.58;;;;;;;30.83;30.57;100604.94;5029197;28;20485;-61
2022/06/22 05:15:43;;;;;;;3.53;2.50;;;;;;;31.07;30.58;100606.63;5027247;28;20823;-61
2022/06/22 05:18:16;;;;;;;6.53;2.70;;;;;;;31.20;29.51;100605.72;5028831;28;20931;-61
2022/06/22 05:20:49;;;;;;;3.92;2.30;;;;;;;31.42;29.39;100607.66;5031007;28;20423;-61
2022/06/22 05:23:19;;;;;;;4.27;2.20;;;;;;;31.67;28.83;100615.53;5039819;28;20418;-61
2022/06/22 05:25:48;;;;;;;5.95;2.20;;;;;;;31.80;27.98;100617.38;5044252;28;20452;-61
2022/06/22 05:28:22;;;;;;;5.90;2.20;;;;;;;32.03;27.73;100620.06;5034141;28;20422;-61
2022/06/22 05:30:56;;;;;;;3.75;2.47;;;;;;;32.25;26.83;100614.50;5029472;28;20416;-61
2022/06/22 05:33:27;;;;;;;5.50;2.42;;;;;;;32.31;27.01;100612.44;5029272;28;20437;-61
2022/06/22 05:36:05;;;;;;;4.43;2.30;;;;;;;32.46;26.41;100606.47;5028928;28;20413;-61
2022/06/22 05:38:36;;;;;;;4.03;2.60;;;;;;;32.60;26.51;100611.06;5033714;28;20444;-61
2022/06/22 05:41:04;;;;;;;6.73;2.60;;;;;;;32.80;26.16;100606.84;5030818;28;20415;-62
2022/06/22 05:43:33;;;;;;;3.78;2.22;;;;;;;32.99;25.66;100607.34;5032908;28;20418;-61
2022/06/22 05:46:02;;;;;;;4.32;2.10;;;;;;;33.26;25.52;100605.38;5046443;28;20421;-61
2022/06/22 05:48:34;;;;;;;4.72;2.00;;;;;;;33.49;24.81;100605.97;5038821;28;20418;-61
2022/06/22 05:51:04;;;;;;;2.33;1.92;;;;;;;33.76;24.60;100603.97;5039093;28;20833;-63
2022/06/22 05:53:39;;;;;;;6.00;2.33;;;;;;;34.09;24.13;100606.91;5032742;28;20420;-63
2022/06/22 05:56:15;;;;;;;4.13;1.92;;;;;;;34.35;22.90;100601.25;5051253;28;20423;-62
2022/06/22 05:58:54;;;;;;;5.15;2.10;;;;;;;34.72;22.40;100589.66;5032806;28;20418;-62
2022/06/22 06:01:26;;;;;;;1.73;1.50;;;;;;;35.03;21.09;100592.00;5045958;28;21004;-62
2022/06/22 06:04:04;;;;;;;2.67;1.80;;;;;;;35.42;21.01;100587.88;5035188;28;20411;-63
2022/06/22 06:06:37;;;;;;;4.37;1.60;;;;;;;35.71;20.62;100585.28;5033819;28;20414;-63
2022/06/22 06:09:07;;;;;;;2.97;1.50;;;;;;;35.96;20.21;100589.69;5031981;28;20803;-62
2022/06/22 06:11:40;;;;;;;3.53;1.77;;;;;;;36.12;20.75;100595.31;5043723;28;20408;-62
2022/06/22 06:14:13;;;;;;;2.78;1.80;;;;;;;36.39;20.47;100594.94;5033934;28;20410;-64
2022/06/22 06:16:45;;;;;;;4.32;1.60;;;;;;;36.63;19.49;100589.34;5050055;28;20938;-63
2022/06/22 06:19:18;;;;;;;4.13;1.52;;;;;;;36.47;19.20;100591.25;5043921;28;20414;-62
2022/06/22 06:21:46;;;;;;;5.80;1.70;;;;;;;36.53;19.14;100598.13;5040750;28;20419;-62
2022/06/22 06:24:19;;;;;;;3.67;1.80;;;;;;;36.63;19.78;100597.63;5049201;28;20501;-62
2022/06/22 06:29:43;;;;;;;2.38;1.40;;;;;;;36.35;18.04;100600.34;5031145;28;20413;-63
2022/06/22 06:32:26;;;;;;;4.50;1.50;;;;;;;36.09;18.55;100606.22;5037140;28;20898;-62
2022/06/22 06:34:59;;;;;;;2.87;1.60;;;;;;;35.81;18.47;100587.59;5036505;28;20414;-62
2022/06/22 06:37:47;;;;;;;3.67;1.50;;;;;;;35.45;19.17;100602.13;5048957;28;20424;-62
2022/06/22 06:40:21;;;;;;;3.50;1.60;;;;;;;35.07;19.57;100600.38;5039612;28;20410;-62
2022/06/22 06:42:58;;;;;;;3.47;1.80;;;;;;;34.80;20.03;100610.84;5037249;28;20791;-62
2022/06/22 06:45:28;;;;;;;2.30;1.67;;;;;;;34.37;20.37;100598.97;5036878;28;20777;-62
2022/06/22 06:48:02;;;;;;;3.97;1.40;;;;;;;34.25;20.86;100601.63;5043996;28;20410;-62
2022/06/22 06:50:36;;;;;;;3.38;1.40;;;;;;;34.08;21.05;100603.31;5033858;28;20417;-61
2022/06/22 06:53:16;;;;;;;2.78;1.33;;;;;;;33.89;21.37;100600.22;5033832;28;20883;-62
2022/06/22 06:55:48;;;;;;;2.58;1.30;;;;;;;33.67;21.39;100606.75;5035178;28;20841;-62
2022/06/22 06:58:19;;;;;;;2.28;1.40;;;;;;;33.48;21.83;100604.38;5034775;28;20438;-62
2022/06/22 07:00:48;;;;;;;3.15;1.90;;;;;;;33.27;22.19;100599.56;5045019;28;20427;-62
2022/06/22 07:03:20;;;;;;;3.15;1.90;;;;;;;33.01;22.66;100596.00;5050174;28;20413;-62
2022/06/22 07:05:50;;;;;;;3.42;1.73;;;;;;;32.74;22.78;100603.47;5038256;28;20418;-62
2022/06/22 07:08:19;;;;;;;3.53;1.63;;;;;;;32.56;23.04;100602.63;5031803;28;20410;-62
2022/06/22 07:10:51;;;;;;;4.82;1.77;;;;;;;32.31;23.64;100615.16;5043075;28;20499;-62
2022/06/22 07:13:23;;;;;;;3.60;2.17;;;;;;;32.13;24.12;100620.59;5049618;28;20929;-61
2022/06/22 07:15:54;;;;;;;5.43;2.20;;;;;;;32.03;24.12;100629.06;5042555;28;20424;-63
2022/06/22 07:18:26;;;;;;;3.67;1.85;;;;;;;31.81;24.00;100627.22;5049299;28;20822;-62
2022/06/22 07:20:59;;;;;;;2.80;1.58;;;;;;;31.60;24.23;100629.69;5038888;28;20433;-61
2022/06/22 07:23:32;;;;;;;5.00;2.10;;;;;;;31.54;24.84;100626.28;5032931;28;20499;-61
2022/06/22 07:26:08;;;;;;;5.70;2.10;;;;;;;31.50;24.15;100628.03;5032850;28;22073;-63
2022/06/22 07:28:41;;;;;;;2.92;1.40;;;;;;;31.43;21.44;100633.13;5034717;28;20949;-62
2022/06/22 07:31:15;;;;;;;3.80;1.35;;;;;;;31.31;21.13;100643.81;5034715;28;20415;-63
2022/06/22 07:33:47;;;;;;;3.33;1.15;;;;;;;31.11;18.90;100636.91;5045093;28;20448;-62
2022/06/22 07:36:22;;;;;;;2.63;0.73;;;;;;;30.83;18.35;100643.28;5033428;28;20414;-63
2022/06/22 07:38:53;;;;;;;2.13;0.90;;;;;;;30.82;18.01;100636.16;5033646;28;20418;-63
2022/06/22 07:41:23;;;;;;;3.60;0.82;;;;;;;30.68;17.27;100636.22;5041469;28;20491;-63
2022/06/22 07:43:55;;;;;;;2.53;0.93;;;;;;;30.42;16.21;100632.41;5029769;28;20426;-63
2022/06/22 07:46:29;;;;;;;5.07;0.77;;;;;;;30.31;15.88;100635.31;5031516;28;20425;-63
2022/06/22 07:49:03;;;;;;;3.53;0.90;;;;;;;30.28;15.80;100635.91;5032327;28;20418;-62
2022/06/22 07:51:34;;;;;;;4.18;0.80;;;;;;;30.28;15.92;100632.38;5030655;28;20790;-62
2022/06/22 07:54:06;;;;;;;2.10;1.00;;;;;;;30.21;15.55;100623.78;5030766;28;20967;-62
2022/06/22 07:56:47;;;;;;;1.20;0.90;;;;;;;30.15;15.22;100630.47;5029927;28;20513;-63
2022/06/22 07:59:18;;;;;;;2.10;0.80;;;;;;;30.18;15.75;100629.84;5031277;28;20780;-63
2022/06/22 08:01:48;;;;;;;2.63;0.90;;;;;;;30.15;16.13;100609.41;5031695;28;20437;-62
2022/06/22 08:04:20;;;;;;;5.00;1.10;;;;;;;30.05;16.28;100620.53;5031573;28;20414;-62
2022/06/22 08:06:54;;;;;;;4.28;0.80;;;;;;;29.97;16.47;100622.06;5028923;28;20425;-63
2022/06/22 08:09:24;;;;;;;1.23;0.60;;;;;;;29.88;16.72;100621.16;5030574;28;20410;-62
2022/06/22 08:12:01;;;;;;;2.70;0.60;;;;;;;29.88;17.01;100627.41;5031116;28;20509;-63
2022/06/22 08:14:34;;;;;;;2.50;1.20;;;;;;;29.87;17.29;100625.81;5029643;28;20406;-63
2022/06/22 08:17:04;;;;;;;1.80;0.80;;;;;;;29.82;17.38;100634.09;5031351;28;20437;-63
2022/06/22 08:19:33;;;;;;;3.10;0.73;;;;;;;29.87;17.77;100639.47;5032318;28;20407;-63
2022/06/22 08:22:04;;;;;;;4.68;0.90;;;;;;;29.87;18.47;100624.97;5031475;28;20429;-63
2022/06/22 08:24:34;;;;;;;6.40;1.50;;;;;;;29.92;18.71;100630.34;5033131;28;20410;-62
2022/06/22 08:27:02;;;;;;;3.35;1.25;;;;;;;29.93;19.14;100642.91;5030832;28;20434;-61
2022/06/22 08:29:37;;;;;;;3.13;1.23;;;;;;;29.91;19.18;100645.94;5034710;28;20413;-61
2022/06/22 08:32:10;;;;;;;5.90;1.75;;;;;;;29.95;19.61;100656.28;5031964;28;20513;-62
2022/06/22 08:34:41;;;;;;;4.80;1.80;;;;;;;29.95;19.94;100650.81;5030591;28;20414;-63
2022/06/22 08:37:15;;;;;;;2.60;1.57;;;;;;;29.85;20.41;100662.72;5032371;28;20500;-62
2022/06/22 08:39:47;;;;;;;4.15;1.75;;;;;;;29.79;21.14;100659.28;5032069;28;20421;-62
2022/06/22 08:42:26;;;;;;;3.40;1.70;;;;;;;29.87;21.43;100657.78;5029413;28;20440;-62
2022/06/22 08:45:19;;;;;;;3.78;1.40;;;;;;;29.87;21.51;100653.13;5029528;28;20418;-62
2022/06/22 08:48:05;;;;;;;3.65;1.08;;;;;;;29.86;22.21;100656.97;5029504;28;20800;-62
2022/06/22 08:51:09;;;;;;;3.43;1.10;;;;;;;29.88;22.51;100653.94;5029092;28;20414;-61
2022/06/22 08:53:59;;;;;;;1.45;1.00;;;;;;;29.92;21.95;100660.41;5031022;28;20497;-62
2022/06/22 08:56:39;;;;;;;1.83;0.82;;;;;;;29.89;22.49;100661.00;5031019;28;20903;-62
2022/06/22 08:59:30;;;;;;;1.88;0.90;;;;;;;29.92;23.31;100657.69;5030723;28;20939;-62
2022/06/22 09:02:14;;;;;;;4.40;1.40;;;;;;;29.93;22.99;100664.78;5043421;28;20408;-63
2022/06/22 09:05:15;;;;;;;3.40;1.20;;;;;;;29.97;23.80;100667.72;5043307;28;20504;-62
2022/06/22 09:08:02;;;;;;;2.30;1.47;;;;;;;30.04;23.16;100662.66;5046980;28;20493;-62
2022/06/22 09:10:49;;;;;;;3.00;1.00;;;;;;;29.98;21.98;100661.13;5038338;28;20497;-62
2022/06/22 09:13:41;;;;;;;3.50;1.10;;;;;;;29.88;21.89;100648.47;5046468;28;20423;-63
2022/06/22 09:16:23;;;;;;;2.60;1.15;;;;;;;29.94;21.96;100655.44;5036483;28;20412;-62
2022/06/22 09:19:25;;;;;;;2.33;0.98;;;;;;;29.93;21.92;100673.78;5050825;28;20843;-62
2022/06/22 09:22:08;;;;;;;1.70;0.80;;;;;;;29.89;22.09;100667.31;5044869;28;20470;-63
2022/06/22 09:24:42;;;;;;;2.63;1.25;;;;;;;29.79;22.19;100666.69;5039044;28;20504;-61
2022/06/22 09:27:18;;;;;;;1.67;1.27;;;;;;;29.81;22.77;100669.91;5039162;28;21001;-62
2022/06/22 09:30:08;;;;;;;3.22;1.15;;;;;;;29.74;22.58;100662.91;5040292;28;20726;-63
2022/06/22 09:33:13;;;;;;;1.75;0.85;;;;;;;29.72;22.55;100659.63;5030024;28;20418;-62
2022/06/22 09:36:15;;;;;;;3.57;1.10;;;;;;;29.66;22.81;100668.25;5045806;28;20428;-61
2022/06/22 09:39:20;;;;;;;3.80;1.10;;;;;;;29.60;22.68;100663.97;5000192;28;20509;-61
2022/06/22 09:42:07;;;;;;;3.53;1.50;;;;;;;29.52;22.68;100660.00;5030959;28;20401;-62
2022/06/22 09:44:52;;;;;;;3.92;1.88;;;;;;;29.56;22.57;100661.00;5039317;28;20414;-65
2022/06/22 09:48:02;;;;;;;3.90;1.73;;;;;;;29.47;22.42;100662.81;5042223;28;20414;-63
2022/06/22 09:51:12;;;;;;;3.38;1.63;;;;;;;29.44;22.30;100653.31;5035119;28;20418;-63
2022/06/22 09:56:19;;;;;;;3.58;1.40;;;;;;;29.43;22.14;100668.06;5043054;28;20412;-63
2022/06/22 09:57:18;;;;;;;2.80;1.50;;;;;;;29.40;22.32;100662.38;5042548;28;20400;-63
2022/06/22 10:00:11;;;;;;;1.90;1.23;;;;;;;29.38;22.32;100670.06;5047282;28;20806;-63
2022/06/22 10:03:20;;;;;;;3.78;1.70;;;;;;;29.38;22.81;100668.13;5045940;28;20408;-64
2022/06/22 10:06:08;;;;;;;2.47;1.13;;;;;;;29.36;22.85;100675.81;5010051;28;20918;-63
2022/06/22 10:08:55;;;;;;;3.88;1.20;;;;;;;29.40;22.81;100671.38;5046585;28;20412;-63
2022/06/22 10:11:39;;;;;;;2.22;0.88;;;;;;;29.41;22.79;100669.47;5041244;28;20489;-63
2022/06/22 10:14:38;;;;;;;2.55;0.90;;;;;;;29.43;22.95;100661.78;5048892;28;20417;-63
2022/06/22 10:17:23;;;;;;;3.25;0.85;;;;;;;29.40;23.46;100656.91;5048486;28;20505;-64
2022/06/22 10:20:05;;;;;;;1.57;1.03;;;;;;;29.44;23.56;100652.47;5048252;28;20499;-63
2022/06/22 10:22:45;;;;;;;2.70;1.00;;;;;;;29.43;23.70;100659.88;5049672;28;20499;-63
2022/06/22 10:25:37;;;;;;;2.72;0.90;;;;;;;29.48;24.00;100651.59;5031919;28;20416;-63
2022/06/22 10:28:22;;;;;;;1.42;0.90;;;;;;;29.52;24.58;100641.69;5041797;28;20439;-64
2022/06/22 10:30:57;;;;;;;2.45;0.80;;;;;;;29.56;24.29;100630.97;5031579;28;20472;-63
2022/06/22 10:33:47;;;;;;;3.17;1.00;;;;;;;29.55;24.20;100630.16;5031937;28;20904;-63
2022/06/22 10:36:40;;;;;;;1.65;0.90;;;;;;;29.56;24.22;100630.97;5037464;28;20523;-62
2022/06/22 10:39:24;;;;;;;3.70;1.20;;;;;;;29.67;24.33;100634.34;5045267;28;20432;-63
2022/06/22 10:45:10;;;;;;;1.10;0.87;;;;;;;29.79;23.70;100633.88;5043427;28;20780;-63
2022/06/22 10:48:04;;;;;;;1.52;0.85;;;;;;;29.90;23.36;100629.84;5037990;28;20417;-63
2022/06/22 10:50:45;;;;;;;2.28;1.05;;;;;;;29.88;23.25;100619.22;5035931;28;20414;-63
2022/06/22 10:53:44;;;;;;;2.45;1.10;;;;;;;29.99;22.97;100617.09;5033693;28;20493;-63
2022/06/22 10:56:30;;;;;;;1.33;0.93;;;;;;;30.06;22.67;100622.16;5014489;28;20422;-62
2022/06/22 10:59:21;;;;;;;2.97;1.05;;;;;;;30.07;22.49;100612.84;5035616;28;20437;-63
2022/06/22 11:02:14;;;;;;;3.40;0.93;;;;;;;30.16;22.65;100611.03;5030493;28;20513;-63
2022/06/22 11:05:12;;;;;;;1.63;1.10;;;;;;;30.19;22.98;100610.41;5036114;28;20495;-64
2022/06/22 11:08:23;;;;;;;2.03;1.17;;;;;;;30.15;22.04;100598.47;5036950;28;20414;-63
2022/06/22 11:11:03;;;;;;;3.90;0.90;;;;;;;30.20;22.42;100598.38;5029807;28;20853;-62
2022/06/22 11:14:04;;;;;;;2.97;1.00;;;;;;;30.28;22.84;100594.09;5031892;28;20413;-63
2022/06/22 11:17:02;;;;;;;2.00;1.17;;;;;;;30.37;22.45;100583.28;5044415;28;20505;-62
2022/06/22 11:20:04;;;;;;;1.80;1.10;;;;;;;30.44;22.24;100576.28;5030906;28;20434;-63
2022/06/22 11:22:35;;;;;;;2.08;1.20;;;;;;;30.54;22.59;100568.97;5032875;28;20505;-63
2022/06/22 11:31:44;;;;;;;1.50;1.20;;;;;;;30.91;22.10;100561.53;5037033;28;20479;-65
2022/06/22 11:35:08;;;;;;;3.13;1.45;;;;;;;30.94;22.43;100550.00;5043977;28;20420;-65
2022/06/22 11:37:56;;;;;;;2.00;1.27;;;;;;;31.01;22.11;100550.38;4952548;28;20505;-66
2022/06/22 11:40:44;;;;;;;3.10;1.45;;;;;;;31.09;22.39;100554.28;5024701;28;20815;-67
2022/06/22 11:43:56;;;;;;;3.45;1.60;;;;;;;31.20;22.29;100553.69;5040172;28;20425;-66
2022/06/22 11:46:27;;;;;;;1.65;1.30;;;;;;;31.35;22.29;100560.72;5030591;28;20415;-66
2022/06/22 11:49:23;;;;;;;3.30;1.40;;;;;;;31.45;22.53;100548.69;5032944;28;20418;-66
2022/06/22 11:52:19;;;;;;;2.03;1.20;;;;;;;31.55;21.76;100544.91;5031569;28;20414;-66
2022/06/22 11:55:21;;;;;;;12.30;2.20;;;;;;;31.49;21.53;100537.94;5027829;28;20433;-63
2022/06/22 11:58:27;;;;;;;7.78;1.98;;;;;;;31.52;21.73;100543.59;5040798;28;20512;-64
2022/06/22 12:01:17;;;;;;;4.45;2.03;;;;;;;31.59;21.71;100532.19;5033774;28;20437;-66
2022/06/22 12:04:17;;;;;;;7.47;1.83;;;;;;;31.60;21.57;100552.97;5029678;28;20458;-64
2022/06/22 12:07:02;;;;;;;2.40;1.90;;;;;;;31.65;21.36;100544.59;5005774;28;20792;-61
2022/06/22 12:09:41;;;;;;;5.93;2.33;;;;;;;31.71;21.16;100545.28;5043248;28;20418;-64
2022/06/22 12:12:34;;;;;;;5.05;2.05;;;;;;;31.78;21.54;100538.22;5043542;28;20409;-64
2022/06/22 12:15:09;;;;;;;2.60;1.70;;;;;;;31.93;22.17;100538.91;5032020;28;20501;-64
2022/06/22 12:18:00;;;;;;;3.80;2.00;;;;;;;31.97;22.25;100557.13;5030402;28;20430;-64
2022/06/22 12:20:45;;;;;;;5.07;2.03;;;;;;;32.01;22.02;100557.31;5040330;28;20416;-64
2022/06/22 12:23:25;;;;;;;3.85;2.00;;;;;;;31.99;20.98;100556.81;5036693;28;20502;-64
2022/06/22 12:26:15;;;;;;;5.82;2.13;;;;;;;32.01;21.55;100557.31;5038702;28;20421;-64
2022/06/22 12:29:32;;;;;;;4.30;2.00;;;;;;;32.01;21.49;100547.13;5030870;28;20412;-69
2022/06/22 12:32:12;;;;;;;5.43;2.27;;;;;;;32.07;21.81;100560.72;4998161;28;20444;-67
2022/06/22 12:34:46;;;;;;;5.60;2.30;;;;;;;32.08;22.24;100551.38;5037136;28;20442;-66
2022/06/22 12:37:18;;;;;;;4.40;2.03;;;;;;;32.11;21.52;100556.25;5031491;28;20417;-66
2022/06/22 12:39:49;;;;;;;4.25;1.80;;;;;;;32.12;22.06;100555.91;5039829;28;20431;-66